CEB915 RPLL-RPVB
Flight info
| Callsign | CEB915 |
|---|---|
| Flight time | 0h 48m |
| Altitude | 31000 |
| Route | VERDE2R VERDE W24 TAPER B472 LAMBO LAMBO3P |
| Aircraft | A21N/M-SDE2E3FGHIRWXY/LB1 |
Departure
| Time | 2026-04-15 13:26 |
|---|---|
| Airport | Ninoy Aquino International Airport (RPLL) |
Arrival
| Time | 2026-04-15 14:14 |
|---|---|
| Airport | Bacolod-Silay International Airport (RPVB) |
| Time | Latitude | Longitude | Altitude | Speed | Heading |
|---|---|---|---|---|---|
| 2026-04-15 12:58 | 14.51619 | 121.01567 | 69 ft | 0 kts | 45° |
| 2026-04-15 13:11 | 14.51617 | 121.01565 | 33 ft | 0 kts | 44° |
| 2026-04-15 13:11 | 14.51613 | 121.01561 | 61 ft | 1 kts | 44° |
| 2026-04-15 13:12 | 14.51607 | 121.01555 | 61 ft | 1 kts | 44° |
| 2026-04-15 13:12 | 14.51602 | 121.01550 | 66 ft | 1 kts | 44° |
| 2026-04-15 13:12 | 14.51596 | 121.01544 | 65 ft | 1 kts | 44° |
| 2026-04-15 13:12 | 14.51591 | 121.01539 | 59 ft | 1 kts | 44° |
| 2026-04-15 13:13 | 14.51585 | 121.01533 | 59 ft | 1 kts | 44° |
| 2026-04-15 13:13 | 14.51583 | 121.01531 | 59 ft | 0 kts | 44° |
| 2026-04-15 13:13 | 14.51578 | 121.01526 | 59 ft | 1 kts | 44° |
| 2026-04-15 13:13 | 14.51573 | 121.01521 | 59 ft | 1 kts | 44° |
| 2026-04-15 13:14 | 14.51567 | 121.01515 | 59 ft | 1 kts | 44° |
| 2026-04-15 13:14 | 14.51562 | 121.01510 | 59 ft | 1 kts | 44° |
| 2026-04-15 13:14 | 14.51556 | 121.01504 | 61 ft | 1 kts | 44° |
| 2026-04-15 13:14 | 14.51551 | 121.01499 | 62 ft | 1 kts | 44° |
| 2026-04-15 13:15 | 14.51542 | 121.01495 | 59 ft | 1 kts | 110° |
| 2026-04-15 13:15 | 14.51540 | 121.01497 | 59 ft | 1 kts | 117° |
| 2026-04-15 13:15 | 14.51535 | 121.01501 | 59 ft | 1 kts | 132° |
| 2026-04-15 13:15 | 14.51533 | 121.01503 | 59 ft | 1 kts | 132° |
| 2026-04-15 13:16 | 14.51524 | 121.01513 | 63 ft | 0 kts | 132° |
| 2026-04-15 13:17 | 14.51507 | 121.01536 | 65 ft | 9 kts | 129° |
| 2026-04-15 13:17 | 14.51444 | 121.01602 | 62 ft | 15 kts | 135° |
| 2026-04-15 13:17 | 14.51364 | 121.01686 | 62 ft | 18 kts | 136° |
| 2026-04-15 13:17 | 14.51271 | 121.01780 | 64 ft | 19 kts | 135° |
| 2026-04-15 13:18 | 14.51172 | 121.01882 | 65 ft | 21 kts | 135° |
| 2026-04-15 13:18 | 14.51077 | 121.01981 | 63 ft | 7 kts | 135° |
| 2026-04-15 13:18 | 14.51076 | 121.01982 | 63 ft | 1 kts | 135° |
| 2026-04-15 13:18 | 14.51054 | 121.01991 | 60 ft | 5 kts | 174° |
| 2026-04-15 13:19 | 14.51018 | 121.01946 | 65 ft | 13 kts | 240° |
| 2026-04-15 13:19 | 14.50964 | 121.01849 | 60 ft | 18 kts | 240° |
| 2026-04-15 13:19 | 14.50896 | 121.01727 | 63 ft | 21 kts | 240° |
| 2026-04-15 13:19 | 14.50824 | 121.01598 | 64 ft | 20 kts | 240° |
| 2026-04-15 13:20 | 14.50770 | 121.01504 | 60 ft | 2 kts | 239° |
| 2026-04-15 13:20 | 14.50763 | 121.01490 | 69 ft | 5 kts | 241° |
| 2026-04-15 13:20 | 14.50731 | 121.01430 | 66 ft | 14 kts | 240° |
| 2026-04-15 13:20 | 14.50675 | 121.01331 | 61 ft | 18 kts | 240° |
| 2026-04-15 13:21 | 14.50610 | 121.01212 | 63 ft | 20 kts | 240° |
| 2026-04-15 13:21 | 14.50536 | 121.01080 | 65 ft | 22 kts | 240° |
| 2026-04-15 13:21 | 14.50455 | 121.00934 | 65 ft | 24 kts | 240° |
| 2026-04-15 13:21 | 14.50367 | 121.00776 | 60 ft | 26 kts | 240° |
| 2026-04-15 13:22 | 14.50270 | 121.00603 | 60 ft | 34 kts | 239° |
| 2026-04-15 13:22 | 14.50139 | 121.00367 | 60 ft | 35 kts | 240° |
| 2026-04-15 13:22 | 14.50022 | 121.00157 | 60 ft | 31 kts | 240° |
| 2026-04-15 13:22 | 14.49959 | 121.00044 | 63 ft | 8 kts | 241° |
| 2026-04-15 13:23 | 14.49944 | 121.00016 | 66 ft | 0 kts | 241° |
| 2026-04-15 13:23 | 14.49943 | 121.00015 | 69 ft | 0 kts | 240° |
| 2026-04-15 13:24 | 14.49941 | 121.00011 | 69 ft | 3 kts | 240° |
| 2026-04-15 13:24 | 14.49913 | 120.99975 | 61 ft | 10 kts | 217° |
| 2026-04-15 13:24 | 14.49825 | 120.99997 | 66 ft | 17 kts | 138° |
| 2026-04-15 13:24 | 14.49847 | 121.00120 | 61 ft | 22 kts | 59° |
| 2026-04-15 13:25 | 14.49980 | 121.00353 | 61 ft | 68 kts | 61° |
| 2026-04-15 13:25 | 14.50322 | 121.00972 | 63 ft | 128 kts | 59° |
| 2026-04-15 13:25 | 14.50843 | 121.01915 | 85 ft | 172 kts | 62° |
| 2026-04-15 13:25 | 14.51467 | 121.03033 | 499 ft | 182 kts | 62° |
| 2026-04-15 13:26 | 14.52117 | 121.04132 | 1244 ft | 180 kts | 59° |
| 2026-04-15 13:26 | 14.52807 | 121.05271 | 1729 ft | 196 kts | 59° |
| 2026-04-15 13:26 | 14.53557 | 121.06529 | 2162 ft | 216 kts | 59° |
| 2026-04-15 13:26 | 14.54378 | 121.07911 | 2610 ft | 238 kts | 59° |
| 2026-04-15 13:27 | 14.55222 | 121.09459 | 3129 ft | 257 kts | 70° |
| 2026-04-15 13:27 | 14.55427 | 121.11309 | 3872 ft | 266 kts | 99° |
| 2026-04-15 13:27 | 14.54723 | 121.13069 | 4779 ft | 271 kts | 127° |
| 2026-04-15 13:27 | 14.53269 | 121.14312 | 5634 ft | 278 kts | 155° |
| 2026-04-15 13:28 | 14.51369 | 121.14754 | 6450 ft | 286 kts | 176° |
| 2026-04-15 13:28 | 14.49371 | 121.14839 | 7292 ft | 289 kts | 178° |
| 2026-04-15 13:28 | 14.48037 | 121.14886 | 7858 ft | 291 kts | 178° |
| 2026-04-15 13:28 | 14.46005 | 121.14952 | 8695 ft | 294 kts | 177° |
| 2026-04-15 13:29 | 14.43945 | 121.15017 | 9516 ft | 298 kts | 178° |
| 2026-04-15 13:29 | 14.41141 | 121.15107 | 10423 ft | 309 kts | 177° |
| 2026-04-15 13:29 | 14.39684 | 121.15154 | 10579 ft | 324 kts | 177° |
| 2026-04-15 13:29 | 14.37356 | 121.15234 | 10799 ft | 346 kts | 177° |
| 2026-04-15 13:30 | 14.34907 | 121.15319 | 11273 ft | 355 kts | 177° |
| 2026-04-15 13:30 | 14.32426 | 121.15410 | 11973 ft | 358 kts | 177° |
| 2026-04-15 13:30 | 14.29919 | 121.15503 | 12634 ft | 363 kts | 177° |
| 2026-04-15 13:30 | 14.27382 | 121.15599 | 13280 ft | 367 kts | 177° |
| 2026-04-15 13:31 | 14.24822 | 121.15480 | 13879 ft | 372 kts | 188° |
| 2026-04-15 13:31 | 14.22253 | 121.15062 | 14432 ft | 376 kts | 189° |
| 2026-04-15 13:31 | 14.19666 | 121.14625 | 15035 ft | 378 kts | 189° |
| 2026-04-15 13:31 | 14.17058 | 121.14185 | 15619 ft | 381 kts | 189° |
| 2026-04-15 13:32 | 14.14425 | 121.13743 | 16177 ft | 385 kts | 189° |
| 2026-04-15 13:32 | 14.11771 | 121.13301 | 16732 ft | 388 kts | 189° |
| 2026-04-15 13:32 | 14.09094 | 121.12857 | 17277 ft | 392 kts | 189° |
| 2026-04-15 13:32 | 14.06391 | 121.12410 | 17822 ft | 395 kts | 189° |
| 2026-04-15 13:33 | 14.03667 | 121.11959 | 18329 ft | 398 kts | 188° |
| 2026-04-15 13:33 | 14.00917 | 121.11505 | 18794 ft | 401 kts | 188° |
| 2026-04-15 13:33 | 13.98153 | 121.11048 | 19265 ft | 404 kts | 188° |
| 2026-04-15 13:33 | 13.95366 | 121.10587 | 19741 ft | 407 kts | 188° |
| 2026-04-15 13:34 | 13.92561 | 121.10124 | 20200 ft | 410 kts | 188° |
| 2026-04-15 13:34 | 13.89735 | 121.09657 | 20667 ft | 413 kts | 188° |
| 2026-04-15 13:34 | 13.86890 | 121.09187 | 21112 ft | 416 kts | 188° |
| 2026-04-15 13:34 | 13.84027 | 121.08715 | 21572 ft | 418 kts | 188° |
| 2026-04-15 13:35 | 13.81142 | 121.08239 | 22014 ft | 421 kts | 188° |
| 2026-04-15 13:35 | 13.78241 | 121.07761 | 22474 ft | 424 kts | 188° |
| 2026-04-15 13:35 | 13.75317 | 121.07279 | 22897 ft | 427 kts | 188° |
| 2026-04-15 13:35 | 13.72374 | 121.06794 | 23333 ft | 429 kts | 188° |
| 2026-04-15 13:36 | 13.69417 | 121.06306 | 23734 ft | 432 kts | 188° |
| 2026-04-15 13:36 | 13.66446 | 121.05818 | 24126 ft | 433 kts | 188° |
| 2026-04-15 13:36 | 13.63467 | 121.05328 | 24507 ft | 434 kts | 188° |
| 2026-04-15 13:36 | 13.60474 | 121.04835 | 24873 ft | 436 kts | 188° |
| 2026-04-15 13:37 | 13.57469 | 121.04341 | 25221 ft | 438 kts | 188° |
| 2026-04-15 13:37 | 13.54443 | 121.03893 | 25559 ft | 440 kts | 183° |
| 2026-04-15 13:37 | 13.51391 | 121.04009 | 25895 ft | 440 kts | 169° |
| 2026-04-15 13:37 | 13.48443 | 121.04831 | 26213 ft | 440 kts | 156° |
| 2026-04-15 13:38 | 13.45785 | 121.06290 | 26531 ft | 440 kts | 145° |
| 2026-04-15 13:38 | 13.43225 | 121.08106 | 26837 ft | 442 kts | 144° |
| 2026-04-15 13:38 | 13.40736 | 121.09899 | 27152 ft | 444 kts | 144° |
| 2026-04-15 13:38 | 13.38198 | 121.11716 | 27457 ft | 446 kts | 144° |
| 2026-04-15 13:39 | 13.35641 | 121.13531 | 27758 ft | 448 kts | 144° |
| 2026-04-15 13:39 | 13.33071 | 121.15344 | 28054 ft | 449 kts | 145° |
| 2026-04-15 13:39 | 13.30487 | 121.17158 | 28332 ft | 451 kts | 145° |
| 2026-04-15 13:39 | 13.27892 | 121.18978 | 28610 ft | 453 kts | 145° |
| 2026-04-15 13:40 | 13.25284 | 121.20805 | 28879 ft | 454 kts | 145° |
| 2026-04-15 13:40 | 13.22667 | 121.22638 | 29137 ft | 456 kts | 145° |
| 2026-04-15 13:40 | 13.20040 | 121.24478 | 29382 ft | 458 kts | 145° |
| 2026-04-15 13:40 | 13.17402 | 121.26326 | 29644 ft | 460 kts | 145° |
| 2026-04-15 13:41 | 13.14754 | 121.28180 | 29896 ft | 462 kts | 145° |
| 2026-04-15 13:41 | 13.12098 | 121.30039 | 30126 ft | 463 kts | 146° |
| 2026-04-15 13:41 | 13.09431 | 121.31906 | 30349 ft | 465 kts | 146° |
| 2026-04-15 13:41 | 13.06757 | 121.33778 | 30570 ft | 466 kts | 146° |
| 2026-04-15 13:42 | 13.04073 | 121.35656 | 30805 ft | 467 kts | 146° |
| 2026-04-15 13:42 | 13.01384 | 121.37537 | 30944 ft | 468 kts | 146° |
| 2026-04-15 13:42 | 12.96010 | 121.41295 | 30935 ft | 467 kts | 146° |
| 2026-04-15 13:43 | 12.90643 | 121.45047 | 30929 ft | 467 kts | 146° |
| 2026-04-15 13:43 | 12.85274 | 121.48797 | 30928 ft | 467 kts | 146° |
| 2026-04-15 13:44 | 12.79907 | 121.52545 | 30923 ft | 466 kts | 146° |
| 2026-04-15 13:44 | 12.74546 | 121.56287 | 30919 ft | 466 kts | 146° |
| 2026-04-15 13:45 | 12.69186 | 121.60027 | 30916 ft | 466 kts | 146° |
| 2026-04-15 13:47 | 12.47747 | 121.74967 | 30909 ft | 466 kts | 146° |
| 2026-04-15 13:47 | 12.42388 | 121.78696 | 30911 ft | 466 kts | 146° |
| 2026-04-15 13:48 | 12.36983 | 121.82350 | 30907 ft | 466 kts | 150° |
| 2026-04-15 13:48 | 12.31106 | 121.85131 | 30901 ft | 466 kts | 157° |
| 2026-04-15 13:49 | 12.25143 | 121.87728 | 30901 ft | 466 kts | 156° |
| 2026-04-15 13:49 | 12.19184 | 121.90332 | 30905 ft | 466 kts | 156° |
| 2026-04-15 13:50 | 12.17217 | 121.91189 | 31028 ft | 463 kts | 157° |
| 2026-04-15 13:51 | 12.01184 | 121.98182 | 30912 ft | 466 kts | 157° |
| 2026-04-15 13:51 | 11.95256 | 122.00765 | 30909 ft | 466 kts | 157° |
| 2026-04-15 13:52 | 11.89292 | 122.03362 | 30652 ft | 466 kts | 157° |
| 2026-04-15 13:52 | 11.86309 | 122.04660 | 29990 ft | 467 kts | 157° |
| 2026-04-15 13:52 | 11.83302 | 122.05968 | 28958 ft | 471 kts | 157° |
| 2026-04-15 13:53 | 11.80304 | 122.07271 | 28312 ft | 465 kts | 156° |
| 2026-04-15 13:53 | 11.77366 | 122.08548 | 27932 ft | 453 kts | 156° |
| 2026-04-15 13:53 | 11.74496 | 122.09795 | 27399 ft | 445 kts | 156° |
| 2026-04-15 13:53 | 11.71671 | 122.11022 | 26851 ft | 438 kts | 156° |
| 2026-04-15 13:54 | 11.68886 | 122.12232 | 26314 ft | 432 kts | 156° |
| 2026-04-15 13:54 | 11.66141 | 122.13423 | 25779 ft | 426 kts | 156° |
| 2026-04-15 13:54 | 11.63428 | 122.14601 | 25254 ft | 421 kts | 156° |
| 2026-04-15 13:54 | 11.60746 | 122.15765 | 24728 ft | 417 kts | 155° |
| 2026-04-15 13:55 | 11.58089 | 122.16918 | 24201 ft | 413 kts | 155° |
| 2026-04-15 13:55 | 11.55458 | 122.18060 | 23684 ft | 409 kts | 155° |
| 2026-04-15 13:55 | 11.52847 | 122.19192 | 23111 ft | 406 kts | 155° |
| 2026-04-15 13:55 | 11.50268 | 122.20312 | 22590 ft | 400 kts | 155° |
| 2026-04-15 13:56 | 11.47722 | 122.21417 | 22088 ft | 395 kts | 155° |
| 2026-04-15 13:56 | 11.45209 | 122.22508 | 21581 ft | 390 kts | 155° |
| 2026-04-15 13:56 | 11.42724 | 122.23587 | 21077 ft | 386 kts | 155° |
| 2026-04-15 13:56 | 11.40267 | 122.24653 | 20585 ft | 382 kts | 155° |
| 2026-04-15 13:57 | 11.37833 | 122.25709 | 20085 ft | 379 kts | 155° |
| 2026-04-15 13:57 | 11.35419 | 122.26756 | 19595 ft | 376 kts | 155° |
| 2026-04-15 13:57 | 11.33021 | 122.27797 | 19105 ft | 373 kts | 155° |
| 2026-04-15 13:57 | 11.30641 | 122.28829 | 18621 ft | 371 kts | 155° |
| 2026-04-15 13:58 | 11.28271 | 122.29857 | 18116 ft | 369 kts | 155° |
| 2026-04-15 13:58 | 11.25920 | 122.30876 | 17602 ft | 365 kts | 155° |
| 2026-04-15 13:58 | 11.23615 | 122.31875 | 17390 ft | 353 kts | 155° |
| 2026-04-15 13:58 | 11.21395 | 122.32836 | 17256 ft | 340 kts | 155° |
| 2026-04-15 13:59 | 11.19242 | 122.33767 | 17010 ft | 334 kts | 155° |
| 2026-04-15 13:59 | 11.17099 | 122.34698 | 16764 ft | 335 kts | 154° |
| 2026-04-15 13:59 | 11.15029 | 122.35787 | 16526 ft | 335 kts | 146° |
| 2026-04-15 13:59 | 11.13041 | 122.37018 | 16281 ft | 332 kts | 147° |
| 2026-04-15 14:00 | 11.11073 | 122.38228 | 15920 ft | 329 kts | 147° |
| 2026-04-15 14:00 | 11.09121 | 122.39423 | 15526 ft | 326 kts | 147° |
| 2026-04-15 14:00 | 11.07183 | 122.40607 | 15135 ft | 323 kts | 147° |
| 2026-04-15 14:00 | 11.05260 | 122.41782 | 14740 ft | 321 kts | 147° |
| 2026-04-15 14:01 | 11.01464 | 122.44100 | 13961 ft | 316 kts | 147° |
| 2026-04-15 14:01 | 10.99585 | 122.45248 | 13551 ft | 314 kts | 147° |
| 2026-04-15 14:01 | 10.97723 | 122.46385 | 13163 ft | 310 kts | 147° |
| 2026-04-15 14:02 | 10.95884 | 122.47508 | 12765 ft | 307 kts | 147° |
| 2026-04-15 14:02 | 10.94064 | 122.48619 | 12386 ft | 303 kts | 147° |
| 2026-04-15 14:02 | 10.92264 | 122.49718 | 12009 ft | 300 kts | 147° |
| 2026-04-15 14:02 | 10.90486 | 122.50803 | 11643 ft | 296 kts | 147° |
| 2026-04-15 14:03 | 10.88744 | 122.51905 | 11242 ft | 294 kts | 142° |
| 2026-04-15 14:03 | 10.87195 | 122.53285 | 10647 ft | 299 kts | 130° |
| 2026-04-15 14:03 | 10.85918 | 122.54945 | 10362 ft | 298 kts | 125° |
| 2026-04-15 14:03 | 10.84675 | 122.56638 | 10119 ft | 299 kts | 126° |
| 2026-04-15 14:04 | 10.83412 | 122.58327 | 9760 ft | 299 kts | 126° |
| 2026-04-15 14:04 | 10.82160 | 122.59992 | 9456 ft | 294 kts | 126° |
| 2026-04-15 14:04 | 10.80924 | 122.61637 | 9041 ft | 292 kts | 126° |
| 2026-04-15 14:04 | 10.79684 | 122.63288 | 8475 ft | 296 kts | 126° |
| 2026-04-15 14:05 | 10.78441 | 122.64943 | 8122 ft | 291 kts | 126° |
| 2026-04-15 14:05 | 10.77227 | 122.66562 | 7743 ft | 287 kts | 126° |
| 2026-04-15 14:05 | 10.76029 | 122.68159 | 7506 ft | 280 kts | 126° |
| 2026-04-15 14:05 | 10.74840 | 122.69746 | 7393 ft | 285 kts | 126° |
| 2026-04-15 14:06 | 10.73634 | 122.71357 | 7134 ft | 288 kts | 126° |
| 2026-04-15 14:06 | 10.72419 | 122.72979 | 6766 ft | 288 kts | 126° |
| 2026-04-15 14:06 | 10.71209 | 122.74593 | 6408 ft | 286 kts | 126° |
| 2026-04-15 14:06 | 10.70412 | 122.75657 | 6154 ft | 284 kts | 126° |
| 2026-04-15 14:07 | 10.69221 | 122.77243 | 5793 ft | 281 kts | 126° |
| 2026-04-15 14:07 | 10.67653 | 122.79335 | 5314 ft | 275 kts | 126° |
| 2026-04-15 14:07 | 10.66885 | 122.80356 | 5084 ft | 273 kts | 126° |
| 2026-04-15 14:07 | 10.65784 | 122.81912 | 4703 ft | 270 kts | 119° |
| 2026-04-15 14:08 | 10.64869 | 122.83541 | 4518 ft | 259 kts | 118° |
| 2026-04-15 14:08 | 10.63992 | 122.85090 | 4406 ft | 246 kts | 118° |
| 2026-04-15 14:08 | 10.63153 | 122.86561 | 4278 ft | 235 kts | 118° |
| 2026-04-15 14:08 | 10.62357 | 122.87956 | 4128 ft | 223 kts | 118° |
| 2026-04-15 14:09 | 10.61595 | 122.89306 | 3878 ft | 216 kts | 114° |
| 2026-04-15 14:09 | 10.61258 | 122.90694 | 3797 ft | 194 kts | 88° |
| 2026-04-15 14:09 | 10.61583 | 122.91955 | 3607 ft | 181 kts | 59° |
| 2026-04-15 14:09 | 10.62403 | 122.92869 | 3291 ft | 171 kts | 39° |
| 2026-04-15 14:10 | 10.63364 | 122.93508 | 3062 ft | 162 kts | 32° |
| 2026-04-15 14:10 | 10.64340 | 122.94071 | 2859 ft | 154 kts | 32° |
| 2026-04-15 14:10 | 10.65227 | 122.94593 | 2663 ft | 144 kts | 32° |
| 2026-04-15 14:10 | 10.66091 | 122.95101 | 2469 ft | 143 kts | 32° |
| 2026-04-15 14:11 | 10.66948 | 122.95606 | 2288 ft | 142 kts | 32° |
| 2026-04-15 14:11 | 10.67802 | 122.96108 | 2102 ft | 141 kts | 32° |
| 2026-04-15 14:11 | 10.68655 | 122.96610 | 1925 ft | 142 kts | 32° |
| 2026-04-15 14:11 | 10.69513 | 122.97114 | 1748 ft | 142 kts | 32° |
| 2026-04-15 14:12 | 10.70357 | 122.97612 | 1555 ft | 139 kts | 31° |
| 2026-04-15 14:12 | 10.71197 | 122.98105 | 1379 ft | 141 kts | 31° |
| 2026-04-15 14:12 | 10.72048 | 122.98603 | 1207 ft | 141 kts | 32° |
| 2026-04-15 14:12 | 10.72901 | 122.99107 | 1027 ft | 142 kts | 31° |
| 2026-04-15 14:13 | 10.73744 | 122.99603 | 846 ft | 141 kts | 30° |
| 2026-04-15 14:13 | 10.74609 | 123.00110 | 663 ft | 142 kts | 31° |
| 2026-04-15 14:13 | 10.75455 | 123.00606 | 467 ft | 141 kts | 31° |
| 2026-04-15 14:13 | 10.76302 | 123.01117 | 262 ft | 141 kts | 32° |
| 2026-04-15 14:14 | 10.77145 | 123.01609 | 93 ft | 136 kts | 31° |
| 2026-04-15 14:14 | 10.77853 | 123.02024 | 89 ft | 83 kts | 28° |
| 2026-04-15 14:14 | 10.78262 | 123.02263 | 88 ft | 54 kts | 27° |
| 2026-04-15 14:14 | 10.78409 | 123.02317 | 89 ft | 1 kts | 21° |